sensor_id;sensor_type;location;lat;lon;timestamp;temperature;humidity
24087;DHT22;22893;50.572;7.234;2022-08-19T05:09:08;24.70;75.80
24087;DHT22;22893;50.572;7.234;2022-08-19T05:11:37;24.70;75.80
24087;DHT22;22893;50.572;7.234;2022-08-19T05:14:07;24.70;75.80
24087;DHT22;22893;50.572;7.234;2022-08-19T05:16:35;24.80;75.80
24087;DHT22;22893;50.572;7.234;2022-08-19T05:19:02;24.70;75.70
24087;DHT22;22893;50.572;7.234;2022-08-19T05:21:48;24.70;75.70
24087;DHT22;22893;50.572;7.234;2022-08-19T05:24:33;24.70;76.00
24087;DHT22;22893;50.572;7.234;2022-08-19T05:27:02;24.70;75.90
24087;DHT22;22893;50.572;7.234;2022-08-19T05:29:32;24.70;75.90
24087;DHT22;22893;50.572;7.234;2022-08-19T05:32:03;24.60;76.00
24087;DHT22;22893;50.572;7.234;2022-08-19T05:34:31;24.60;76.20
24087;DHT22;22893;50.572;7.234;2022-08-19T05:37:01;24.60;76.20
24087;DHT22;22893;50.572;7.234;2022-08-19T05:39:31;24.60;76.20
24087;DHT22;22893;50.572;7.234;2022-08-19T05:42:02;24.70;76.10
24087;DHT22;22893;50.572;7.234;2022-08-19T05:44:34;24.70;76.00
24087;DHT22;22893;50.572;7.234;2022-08-19T05:47:04;24.70;75.90
24087;DHT22;22893;50.572;7.234;2022-08-19T05:49:33;24.70;76.00
24087;DHT22;22893;50.572;7.234;2022-08-19T05:52:12;24.70;75.80
24087;DHT22;22893;50.572;7.234;2022-08-19T05:54:36;24.70;75.80
24087;DHT22;22893;50.572;7.234;2022-08-19T05:57:04;24.70;75.80
24087;DHT22;22893;50.572;7.234;2022-08-19T05:59:32;24.70;75.80
24087;DHT22;22893;50.572;7.234;2022-08-19T06:02:02;24.70;75.90
24087;DHT22;22893;50.572;7.234;2022-08-19T06:04:30;24.70;76.10
24087;DHT22;22893;50.572;7.234;2022-08-19T06:06:58;24.70;76.20
24087;DHT22;22893;50.572;7.234;2022-08-19T06:09:26;24.70;76.30
24087;DHT22;22893;50.572;7.234;2022-08-19T06:11:56;24.70;76.60
24087;DHT22;22893;50.572;7.234;2022-08-19T06:14:29;24.60;76.70
24087;DHT22;22893;50.572;7.234;2022-08-19T06:16:57;24.60;76.60
24087;DHT22;22893;50.572;7.234;2022-08-19T06:19:29;24.60;76.90
24087;DHT22;22893;50.572;7.234;2022-08-19T06:21:57;24.60;77.20
24087;DHT22;22893;50.572;7.234;2022-08-19T06:24:27;24.60;77.20
24087;DHT22;22893;50.572;7.234;2022-08-19T06:26:56;24.60;77.10
24087;DHT22;22893;50.572;7.234;2022-08-19T06:29:25;24.60;77.10
24087;DHT22;22893;50.572;7.234;2022-08-19T06:31:55;24.60;77.20
24087;DHT22;22893;50.572;7.234;2022-08-19T06:34:24;24.60;77.20
24087;DHT22;22893;50.572;7.234;2022-08-19T06:36:54;24.60;77.30
24087;DHT22;22893;50.572;7.234;2022-08-19T06:39:25;24.60;77.50
24087;DHT22;22893;50.572;7.234;2022-08-19T06:41:56;24.60;77.50
24087;DHT22;22893;50.572;7.234;2022-08-19T06:44:28;24.60;77.50
24087;DHT22;22893;50.572;7.234;2022-08-19T06:46:55;24.60;77.70
24087;DHT22;22893;50.572;7.234;2022-08-19T06:49:23;24.60;77.80
24087;DHT22;22893;50.572;7.234;2022-08-19T06:51:53;24.60;77.80
24087;DHT22;22893;50.572;7.234;2022-08-19T06:54:22;24.60;78.10
24087;DHT22;22893;50.572;7.234;2022-08-19T06:56:51;24.60;78.10
24087;DHT22;22893;50.572;7.234;2022-08-19T06:59:21;24.60;78.10
24087;DHT22;22893;50.572;7.234;2022-08-19T07:01:51;24.60;78.10
24087;DHT22;22893;50.572;7.234;2022-08-19T07:04:25;24.60;78.40
24087;DHT22;22893;50.572;7.234;2022-08-19T07:07:05;24.60;78.40
24087;DHT22;22893;50.572;7.234;2022-08-19T07:09:36;24.60;78.60
24087;DHT22;22893;50.572;7.234;2022-08-19T07:12:07;24.60;78.80
24087;DHT22;22893;50.572;7.234;2022-08-19T07:14:36;24.60;78.80
24087;DHT22;22893;50.572;7.234;2022-08-19T07:17:07;24.60;78.80
24087;DHT22;22893;50.572;7.234;2022-08-19T07:19:36;24.60;79.00
24087;DHT22;22893;50.572;7.234;2022-08-19T07:22:05;24.60;79.10
24087;DHT22;22893;50.572;7.234;2022-08-19T07:24:34;24.60;79.10
24087;DHT22;22893;50.572;7.234;2022-08-19T07:27:04;24.60;79.40
24087;DHT22;22893;50.572;7.234;2022-08-19T07:29:33;24.60;79.30
24087;DHT22;22893;50.572;7.234;2022-08-19T07:32:02;24.50;80.00
24087;DHT22;22893;50.572;7.234;2022-08-19T07:34:31;24.40;80.10
24087;DHT22;22893;50.572;7.234;2022-08-19T07:37:00;24.40;80.50
24087;DHT22;22893;50.572;7.234;2022-08-19T07:39:30;24.40;81.20
24087;DHT22;22893;50.572;7.234;2022-08-19T07:42:01;24.40;81.70
24087;DHT22;22893;50.572;7.234;2022-08-19T07:44:29;24.40;80.80
24087;DHT22;22893;50.572;7.234;2022-08-19T07:46:58;24.40;80.70
24087;DHT22;22893;50.572;7.234;2022-08-19T07:49:26;24.50;80.60
24087;DHT22;22893;50.572;7.234;2022-08-19T07:51:59;24.50;80.90
24087;DHT22;22893;50.572;7.234;2022-08-19T07:54:30;24.50;80.50
24087;DHT22;22893;50.572;7.234;2022-08-19T07:57:00;24.50;80.50
24087;DHT22;22893;50.572;7.234;2022-08-19T07:59:28;24.50;80.60
24087;DHT22;22893;50.572;7.234;2022-08-19T08:01:57;24.50;80.60
24087;DHT22;22893;50.572;7.234;2022-08-19T08:04:29;24.50;80.80
24087;DHT22;22893;50.572;7.234;2022-08-19T08:07:15;24.50;81.00
24087;DHT22;22893;50.572;7.234;2022-08-19T08:10:01;24.50;81.20
24087;DHT22;22893;50.572;7.234;2022-08-19T08:12:32;24.50;81.20
24087;DHT22;22893;50.572;7.234;2022-08-19T08:15:04;24.50;81.30
24087;DHT22;22893;50.572;7.234;2022-08-19T08:17:32;24.60;81.60
24087;DHT22;22893;50.572;7.234;2022-08-19T08:20:00;24.50;81.30
24087;DHT22;22893;50.572;7.234;2022-08-19T08:22:29;24.50;81.60
24087;DHT22;22893;50.572;7.234;2022-08-19T08:25:17;24.50;81.50
24087;DHT22;22893;50.572;7.234;2022-08-19T08:27:46;24.50;81.50
24087;DHT22;22893;50.572;7.234;2022-08-19T08:30:20;24.50;81.60
24087;DHT22;22893;50.572;7.234;2022-08-19T08:32:49;24.50;81.60
24087;DHT22;22893;50.572;7.234;2022-08-19T08:35:20;24.50;81.40
24087;DHT22;22893;50.572;7.234;2022-08-19T08:37:49;24.50;81.30
24087;DHT22;22893;50.572;7.234;2022-08-19T08:43:11;24.50;81.20
24087;DHT22;22893;50.572;7.234;2022-08-19T08:45:44;24.50;81.30
24087;DHT22;22893;50.572;7.234;2022-08-19T08:48:35;24.50;81.30
24087;DHT22;22893;50.572;7.234;2022-08-19T08:50:43;24.50;81.90
24087;DHT22;22893;50.572;7.234;2022-08-19T08:53:14;24.50;81.10
24087;DHT22;22893;50.572;7.234;2022-08-19T08:55:42;24.50;81.60
24087;DHT22;22893;50.572;7.234;2022-08-19T08:58:24;24.50;81.30
24087;DHT22;22893;50.572;7.234;2022-08-19T09:00:48;24.50;82.20
24087;DHT22;22893;50.572;7.234;2022-08-19T09:03:26;24.60;81.70
24087;DHT22;22893;50.572;7.234;2022-08-19T09:06:14;24.60;81.60
24087;DHT22;22893;50.572;7.234;2022-08-19T09:09:10;24.60;81.30
24087;DHT22;22893;50.572;7.234;2022-08-19T09:11:39;24.60;81.30
24087;DHT22;22893;50.572;7.234;2022-08-19T09:17:10;24.60;81.20
24087;DHT22;22893;50.572;7.234;2022-08-19T09:19:50;24.60;81.30
24087;DHT22;22893;50.572;7.234;2022-08-19T09:22:19;24.60;81.00
24087;DHT22;22893;50.572;7.234;2022-08-19T09:24:51;24.60;80.90
24087;DHT22;22893;50.572;7.234;2022-08-19T09:27:20;24.60;81.00
24087;DHT22;22893;50.572;7.234;2022-08-19T09:29:51;24.60;81.00
24087;DHT22;22893;50.572;7.234;2022-08-19T09:32:21;24.60;80.80
24087;DHT22;22893;50.572;7.234;2022-08-19T09:34:50;24.60;80.70
24087;DHT22;22893;50.572;7.234;2022-08-19T09:37:19;24.60;80.50
24087;DHT22;22893;50.572;7.234;2022-08-19T09:39:47;24.60;80.60
24087;DHT22;22893;50.572;7.234;2022-08-19T09:42:15;24.60;80.80
24087;DHT22;22893;50.572;7.234;2022-08-19T09:44:43;24.60;80.80
24087;DHT22;22893;50.572;7.234;2022-08-19T09:47:12;24.60;81.00
24087;DHT22;22893;50.572;7.234;2022-08-19T09:49:41;24.60;81.00
24087;DHT22;22893;50.572;7.234;2022-08-19T09:52:10;24.60;80.70
24087;DHT22;22893;50.572;7.234;2022-08-19T09:54:39;24.60;81.00
24087;DHT22;22893;50.572;7.234;2022-08-19T09:57:06;24.70;80.70
24087;DHT22;22893;50.572;7.234;2022-08-19T09:59:34;24.70;80.70
24087;DHT22;22893;50.572;7.234;2022-08-19T10:02:02;24.70;80.50
24087;DHT22;22893;50.572;7.234;2022-08-19T10:04:30;24.70;80.00
24087;DHT22;22893;50.572;7.234;2022-08-19T10:07:15;24.70;80.40
24087;DHT22;22893;50.572;7.234;2022-08-19T10:09:43;24.70;79.80
24087;DHT22;22893;50.572;7.234;2022-08-19T10:12:10;24.70;80.00
24087;DHT22;22893;50.572;7.234;2022-08-19T10:14:38;24.80;80.40
24087;DHT22;22893;50.572;7.234;2022-08-19T10:17:06;24.80;80.40
24087;DHT22;22893;50.572;7.234;2022-08-19T10:19:33;24.80;80.20
24087;DHT22;22893;50.572;7.234;2022-08-19T10:22:06;24.80;80.50
24087;DHT22;22893;50.572;7.234;2022-08-19T10:24:34;24.80;80.40
24087;DHT22;22893;50.572;7.234;2022-08-19T10:27:02;24.80;80.40
24087;DHT22;22893;50.572;7.234;2022-08-19T10:29:32;24.80;80.60
24087;DHT22;22893;50.572;7.234;2022-08-19T10:32:05;24.80;80.80
24087;DHT22;22893;50.572;7.234;2022-08-19T10:34:36;24.80;81.70
24087;DHT22;22893;50.572;7.234;2022-08-19T10:37:05;24.80;80.80
24087;DHT22;22893;50.572;7.234;2022-08-19T10:39:34;24.80;80.30
24087;DHT22;22893;50.572;7.234;2022-08-19T10:42:06;24.90;80.10
24087;DHT22;22893;50.572;7.234;2022-08-19T10:44:33;24.90;80.00
24087;DHT22;22893;50.572;7.234;2022-08-19T10:47:02;24.90;79.80
24087;DHT22;22893;50.572;7.234;2022-08-19T10:49:30;24.90;80.10
24087;DHT22;22893;50.572;7.234;2022-08-19T10:51:58;24.90;79.80
24087;DHT22;22893;50.572;7.234;2022-08-19T10:54:44;24.90;80.60
24087;DHT22;22893;50.572;7.234;2022-08-19T10:57:32;24.90;79.30
24087;DHT22;22893;50.572;7.234;2022-08-19T11:00:00;24.90;79.20
24087;DHT22;22893;50.572;7.234;2022-08-19T11:02:27;24.90;79.10
24087;DHT22;22893;50.572;7.234;2022-08-19T11:04:55;24.90;78.90
24087;DHT22;22893;50.572;7.234;2022-08-19T11:07:22;24.90;79.00
24087;DHT22;22893;50.572;7.234;2022-08-19T11:09:51;24.90;79.20
24087;DHT22;22893;50.572;7.234;2022-08-19T11:12:19;24.90;78.80
24087;DHT22;22893;50.572;7.234;2022-08-19T11:14:46;24.90;79.20
24087;DHT22;22893;50.572;7.234;2022-08-19T11:17:16;25.00;80.70
24087;DHT22;22893;50.572;7.234;2022-08-19T11:19:43;25.00;83.30
24087;DHT22;22893;50.572;7.234;2022-08-19T11:22:11;24.90;81.90
24087;DHT22;22893;50.572;7.234;2022-08-19T11:24:38;25.00;80.80
24087;DHT22;22893;50.572;7.234;2022-08-19T11:27:08;25.00;80.40
24087;DHT22;22893;50.572;7.234;2022-08-19T11:29:38;25.00;79.50
24087;DHT22;22893;50.572;7.234;2022-08-19T11:32:08;25.00;78.90
24087;DHT22;22893;50.572;7.234;2022-08-19T11:34:36;24.90;79.00
24087;DHT22;22893;50.572;7.234;2022-08-19T11:37:05;25.00;78.80
24087;DHT22;22893;50.572;7.234;2022-08-19T11:39:36;24.90;78.50
24087;DHT22;22893;50.572;7.234;2022-08-19T11:42:05;24.90;77.80
24087;DHT22;22893;50.572;7.234;2022-08-19T11:44:35;25.00;77.20
24087;DHT22;22893;50.572;7.234;2022-08-19T11:47:02;24.90;77.10
24087;DHT22;22893;50.572;7.234;2022-08-19T11:49:30;25.00;76.90
24087;DHT22;22893;50.572;7.234;2022-08-19T11:51:57;25.00;77.00
24087;DHT22;22893;50.572;7.234;2022-08-19T11:54:25;25.00;77.00
24087;DHT22;22893;50.572;7.234;2022-08-19T11:56:52;25.00;77.40
24087;DHT22;22893;50.572;7.234;2022-08-19T11:59:20;25.00;77.40
24087;DHT22;22893;50.572;7.234;2022-08-19T12:01:47;25.00;77.00
24087;DHT22;22893;50.572;7.234;2022-08-19T12:04:15;25.00;77.00
24087;DHT22;22893;50.572;7.234;2022-08-19T12:06:42;25.00;76.80
24087;DHT22;22893;50.572;7.234;2022-08-19T12:09:11;25.00;76.70
24087;DHT22;22893;50.572;7.234;2022-08-19T12:11:39;25.00;76.70
24087;DHT22;22893;50.572;7.234;2022-08-19T12:14:11;25.00;76.60
24087;DHT22;22893;50.572;7.234;2022-08-19T12:16:40;25.00;76.80
24087;DHT22;22893;50.572;7.234;2022-08-19T12:19:08;25.10;77.20
24087;DHT22;22893;50.572;7.234;2022-08-19T12:21:36;25.10;76.60
24087;DHT22;22893;50.572;7.234;2022-08-19T12:24:05;25.10;76.40
24087;DHT22;22893;50.572;7.234;2022-08-19T12:26:33;25.10;76.20
24087;DHT22;22893;50.572;7.234;2022-08-19T12:29:01;25.10;75.90
24087;DHT22;22893;50.572;7.234;2022-08-19T12:31:29;25.10;75.60
24087;DHT22;22893;50.572;7.234;2022-08-19T12:33:57;25.10;75.60
24087;DHT22;22893;50.572;7.234;2022-08-19T12:36:25;25.10;75.50
24087;DHT22;22893;50.572;7.234;2022-08-19T12:38:53;25.10;75.20
24087;DHT22;22893;50.572;7.234;2022-08-19T12:41:20;25.10;75.00
24087;DHT22;22893;50.572;7.234;2022-08-19T12:43:49;25.10;74.80
24087;DHT22;22893;50.572;7.234;2022-08-19T12:46:18;25.10;74.50
24087;DHT22;22893;50.572;7.234;2022-08-19T12:48:46;25.10;74.40
24087;DHT22;22893;50.572;7.234;2022-08-19T12:51:16;25.10;74.20
24087;DHT22;22893;50.572;7.234;2022-08-19T12:53:46;25.10;74.00
24087;DHT22;22893;50.572;7.234;2022-08-19T12:56:14;25.10;75.10
24087;DHT22;22893;50.572;7.234;2022-08-19T12:58:42;25.10;74.10
24087;DHT22;22893;50.572;7.234;2022-08-19T13:01:12;25.20;74.10
24087;DHT22;22893;50.572;7.234;2022-08-19T13:03:40;25.20;74.00
24087;DHT22;22893;50.572;7.234;2022-08-19T13:06:09;25.10;73.60
24087;DHT22;22893;50.572;7.234;2022-08-19T13:08:37;25.20;73.50
24087;DHT22;22893;50.572;7.234;2022-08-19T13:11:16;25.20;73.60
24087;DHT22;22893;50.572;7.234;2022-08-19T13:13:46;25.20;73.70
24087;DHT22;22893;50.572;7.234;2022-08-19T13:16:15;25.20;73.70
24087;DHT22;22893;50.572;7.234;2022-08-19T13:18:45;25.20;73.70
24087;DHT22;22893;50.572;7.234;2022-08-19T13:21:18;25.30;73.80
24087;DHT22;22893;50.572;7.234;2022-08-19T13:23:47;25.30;73.90
24087;DHT22;22893;50.572;7.234;2022-08-19T13:26:15;25.30;73.80
24087;DHT22;22893;50.572;7.234;2022-08-19T13:28:43;25.20;73.50
24087;DHT22;22893;50.572;7.234;2022-08-19T13:31:33;25.30;73.50
24087;DHT22;22893;50.572;7.234;2022-08-19T13:34:25;25.30;73.40
24087;DHT22;22893;50.572;7.234;2022-08-19T13:36:49;25.30;73.40
24087;DHT22;22893;50.572;7.234;2022-08-19T13:39:16;25.30;73.20
24087;DHT22;22893;50.572;7.234;2022-08-19T13:41:45;25.30;73.30
24087;DHT22;22893;50.572;7.234;2022-08-19T13:44:15;25.30;73.40
24087;DHT22;22893;50.572;7.234;2022-08-19T13:46:47;25.30;73.20
24087;DHT22;22893;50.572;7.234;2022-08-19T13:49:17;25.30;73.20
24087;DHT22;22893;50.572;7.234;2022-08-19T13:51:45;25.30;73.20
24087;DHT22;22893;50.572;7.234;2022-08-19T13:54:13;25.30;73.10
24087;DHT22;22893;50.572;7.234;2022-08-19T13:56:44;25.30;73.20
24087;DHT22;22893;50.572;7.234;2022-08-19T13:59:12;25.40;73.00
24087;DHT22;22893;50.572;7.234;2022-08-19T14:01:40;25.40;73.10
24087;DHT22;22893;50.572;7.234;2022-08-19T14:04:09;25.30;72.70
24087;DHT22;22893;50.572;7.234;2022-08-19T14:06:36;25.40;72.60
24087;DHT22;22893;50.572;7.234;2022-08-19T14:09:04;25.30;72.40
24087;DHT22;22893;50.572;7.234;2022-08-19T14:11:32;25.40;72.20
24087;DHT22;22893;50.572;7.234;2022-08-19T14:13:59;25.40;72.10
24087;DHT22;22893;50.572;7.234;2022-08-19T14:16:27;25.40;71.90
24087;DHT22;22893;50.572;7.234;2022-08-19T14:18:56;25.40;71.70
24087;DHT22;22893;50.572;7.234;2022-08-19T14:21:25;25.40;71.60
24087;DHT22;22893;50.572;7.234;2022-08-19T14:23:53;25.40;71.60
24087;DHT22;22893;50.572;7.234;2022-08-19T14:26:22;25.40;71.40
24087;DHT22;22893;50.572;7.234;2022-08-19T14:28:49;25.40;71.30
24087;DHT22;22893;50.572;7.234;2022-08-19T14:31:19;25.40;71.00
24087;DHT22;22893;50.572;7.234;2022-08-19T14:33:48;25.40;70.80
24087;DHT22;22893;50.572;7.234;2022-08-19T14:36:17;25.40;70.50
24087;DHT22;22893;50.572;7.234;2022-08-19T14:38:46;25.40;70.00
24087;DHT22;22893;50.572;7.234;2022-08-19T14:41:17;25.40;70.10
24087;DHT22;22893;50.572;7.234;2022-08-19T14:43:48;25.40;69.90
24087;DHT22;22893;50.572;7.234;2022-08-19T14:46:18;25.40;69.40
24087;DHT22;22893;50.572;7.234;2022-08-19T14:48:50;25.40;69.10
24087;DHT22;22893;50.572;7.234;2022-08-19T14:51:19;25.40;68.90
24087;DHT22;22893;50.572;7.234;2022-08-19T14:53:47;25.40;69.10
24087;DHT22;22893;50.572;7.234;2022-08-19T14:56:20;25.40;68.10
24087;DHT22;22893;50.572;7.234;2022-08-19T14:58:48;25.50;68.30
24087;DHT22;22893;50.572;7.234;2022-08-19T15:01:23;25.40;68.20
24087;DHT22;22893;50.572;7.234;2022-08-19T15:03:50;25.50;68.20
24087;DHT22;22893;50.572;7.234;2022-08-19T15:06:20;25.50;68.20
24087;DHT22;22893;50.572;7.234;2022-08-19T15:08:48;25.50;68.40
24087;DHT22;22893;50.572;7.234;2022-08-19T15:11:20;25.50;68.50
24087;DHT22;22893;50.572;7.234;2022-08-19T15:13:48;25.50;68.70
24087;DHT22;22893;50.572;7.234;2022-08-19T15:16:17;25.50;68.90
24087;DHT22;22893;50.572;7.234;2022-08-19T15:18:46;25.50;68.80
24087;DHT22;22893;50.572;7.234;2022-08-19T15:21:16;25.50;69.20
24087;DHT22;22893;50.572;7.234;2022-08-19T15:23:45;25.50;69.10
24087;DHT22;22893;50.572;7.234;2022-08-19T15:26:15;25.60;69.30
24087;DHT22;22893;50.572;7.234;2022-08-19T15:28:43;25.50;69.00
24087;DHT22;22893;50.572;7.234;2022-08-19T15:31:11;25.50;69.20
24087;DHT22;22893;50.572;7.234;2022-08-19T15:33:39;25.60;69.20
24087;DHT22;22893;50.572;7.234;2022-08-19T15:36:09;25.60;69.30
24087;DHT22;22893;50.572;7.234;2022-08-19T15:38:38;25.60;69.40
24087;DHT22;22893;50.572;7.234;2022-08-19T15:41:19;25.60;69.50
24087;DHT22;22893;50.572;7.234;2022-08-19T15:43:55;25.50;69.50
24087;DHT22;22893;50.572;7.234;2022-08-19T15:46:26;25.50;69.50
24087;DHT22;22893;50.572;7.234;2022-08-19T15:48:55;25.60;69.50
24087;DHT22;22893;50.572;7.234;2022-08-19T15:51:23;25.60;69.70
24087;DHT22;22893;50.572;7.234;2022-08-19T15:53:52;25.60;69.70
24087;DHT22;22893;50.572;7.234;2022-08-19T15:56:20;25.60;69.90
24087;DHT22;22893;50.572;7.234;2022-08-19T15:58:48;25.60;70.10
24087;DHT22;22893;50.572;7.234;2022-08-19T16:01:34;25.60;70.00
24087;DHT22;22893;50.572;7.234;2022-08-19T16:04:19;25.60;70.00
24087;DHT22;22893;50.572;7.234;2022-08-19T16:07:05;25.60;70.10
24087;DHT22;22893;50.572;7.234;2022-08-19T16:09:34;25.60;70.20
24087;DHT22;22893;50.572;7.234;2022-08-19T16:12:04;25.60;70.20
24087;DHT22;22893;50.572;7.234;2022-08-19T16:14:33;25.60;70.30
24087;DHT22;22893;50.572;7.234;2022-08-19T16:17:03;25.70;70.40
24087;DHT22;22893;50.572;7.234;2022-08-19T16:19:31;25.70;70.40
24087;DHT22;22893;50.572;7.234;2022-08-19T16:21:58;25.70;70.40
24087;DHT22;22893;50.572;7.234;2022-08-19T16:24:27;25.70;70.50
24087;DHT22;22893;50.572;7.234;2022-08-19T16:26:55;25.70;70.60
24087;DHT22;22893;50.572;7.234;2022-08-19T16:29:23;25.70;70.50
24087;DHT22;22893;50.572;7.234;2022-08-19T16:31:51;25.70;70.60
24087;DHT22;22893;50.572;7.234;2022-08-19T16:34:21;25.70;70.50
24087;DHT22;22893;50.572;7.234;2022-08-19T16:36:50;25.70;70.60
24087;DHT22;22893;50.572;7.234;2022-08-19T16:39:18;25.70;70.60
24087;DHT22;22893;50.572;7.234;2022-08-19T16:41:45;25.70;71.40
24087;DHT22;22893;50.572;7.234;2022-08-19T16:44:14;25.70;70.60
24087;DHT22;22893;50.572;7.234;2022-08-19T16:46:43;25.70;70.60
24087;DHT22;22893;50.572;7.234;2022-08-19T16:49:13;25.70;70.60
24087;DHT22;22893;50.572;7.234;2022-08-19T16:51:41;25.70;70.70
24087;DHT22;22893;50.572;7.234;2022-08-19T16:54:10;25.70;70.70
24087;DHT22;22893;50.572;7.234;2022-08-19T16:56:38;25.70;70.80
24087;DHT22;22893;50.572;7.234;2022-08-19T16:59:06;25.70;70.60
24087;DHT22;22893;50.572;7.234;2022-08-19T17:01:33;25.70;70.70
24087;DHT22;22893;50.572;7.234;2022-08-19T17:04:01;25.70;70.70
24087;DHT22;22893;50.572;7.234;2022-08-19T17:06:30;25.70;70.90
24087;DHT22;22893;50.572;7.234;2022-08-19T17:09:00;25.70;70.80
24087;DHT22;22893;50.572;7.234;2022-08-19T17:11:29;25.80;71.70
24087;DHT22;22893;50.572;7.234;2022-08-19T17:14:01;25.70;70.80
24087;DHT22;22893;50.572;7.234;2022-08-19T17:16:32;25.70;70.90
24087;DHT22;22893;50.572;7.234;2022-08-19T17:19:03;25.70;70.90
24087;DHT22;22893;50.572;7.234;2022-08-19T17:21:31;25.70;70.80
24087;DHT22;22893;50.572;7.234;2022-08-19T17:24:02;25.70;70.80
24087;DHT22;22893;50.572;7.234;2022-08-19T17:26:30;25.70;70.90
24087;DHT22;22893;50.572;7.234;2022-08-19T17:28:58;25.80;70.90
24087;DHT22;22893;50.572;7.234;2022-08-19T17:31:28;25.80;71.00
24087;DHT22;22893;50.572;7.234;2022-08-19T17:33:56;25.70;70.90
24087;DHT22;22893;50.572;7.234;2022-08-19T17:36:26;25.70;70.90
24087;DHT22;22893;50.572;7.234;2022-08-19T17:38:56;25.70;70.90
24087;DHT22;22893;50.572;7.234;2022-08-19T17:41:25;25.70;70.90
24087;DHT22;22893;50.572;7.234;2022-08-19T17:43:53;25.70;71.00
24087;DHT22;22893;50.572;7.234;2022-08-19T17:46:21;25.70;71.10
24087;DHT22;22893;50.572;7.234;2022-08-19T17:48:50;25.70;71.10
24087;DHT22;22893;50.572;7.234;2022-08-19T17:53:53;25.70;71.00
24087;DHT22;22893;50.572;7.234;2022-08-19T17:56:21;25.70;71.20
24087;DHT22;22893;50.572;7.234;2022-08-19T17:58:50;25.70;71.20
24087;DHT22;22893;50.572;7.234;2022-08-19T18:01:18;25.70;71.20
24087;DHT22;22893;50.572;7.234;2022-08-19T18:03:45;25.70;71.20
24087;DHT22;22893;50.572;7.234;2022-08-19T18:06:14;25.70;71.20
24087;DHT22;22893;50.572;7.234;2022-08-19T18:08:44;25.70;71.30
24087;DHT22;22893;50.572;7.234;2022-08-19T18:11:13;25.70;71.30
24087;DHT22;22893;50.572;7.234;2022-08-19T18:13:41;25.70;71.40
24087;DHT22;22893;50.572;7.234;2022-08-19T18:16:09;25.70;71.20
24087;DHT22;22893;50.572;7.234;2022-08-19T18:18:38;25.70;71.20
24087;DHT22;22893;50.572;7.234;2022-08-19T18:21:07;25.70;71.30
24087;DHT22;22893;50.572;7.234;2022-08-19T18:23:35;25.70;71.40
24087;DHT22;22893;50.572;7.234;2022-08-19T18:26:03;25.70;71.30
24087;DHT22;22893;50.572;7.234;2022-08-19T18:28:32;25.70;71.40
24087;DHT22;22893;50.572;7.234;2022-08-19T18:30:59;25.70;71.40
24087;DHT22;22893;50.572;7.234;2022-08-19T18:33:29;25.70;71.40
24087;DHT22;22893;50.572;7.234;2022-08-19T18:35:56;25.70;71.40
24087;DHT22;22893;50.572;7.234;2022-08-19T18:38:24;25.70;71.40
24087;DHT22;22893;50.572;7.234;2022-08-19T18:41:09;25.70;71.40
24087;DHT22;22893;50.572;7.234;2022-08-19T18:43:54;25.70;71.40
24087;DHT22;22893;50.572;7.234;2022-08-19T18:46:40;25.70;71.40
24087;DHT22;22893;50.572;7.234;2022-08-19T18:49:27;25.70;71.40
24087;DHT22;22893;50.572;7.234;2022-08-19T18:51:56;25.70;71.40
24087;DHT22;22893;50.572;7.234;2022-08-19T18:54:25;25.70;71.50
24087;DHT22;22893;50.572;7.234;2022-08-19T18:56:53;25.70;71.50
24087;DHT22;22893;50.572;7.234;2022-08-19T18:59:26;25.70;71.60
24087;DHT22;22893;50.572;7.234;2022-08-19T19:01:56;25.70;71.70
24087;DHT22;22893;50.572;7.234;2022-08-19T19:04:30;25.60;71.60
24087;DHT22;22893;50.572;7.234;2022-08-19T19:07:02;25.70;71.70
24087;DHT22;22893;50.572;7.234;2022-08-19T19:09:30;25.70;71.70
24087;DHT22;22893;50.572;7.234;2022-08-19T19:12:00;25.70;71.70
24087;DHT22;22893;50.572;7.234;2022-08-19T19:14:31;25.70;71.80
24087;DHT22;22893;50.572;7.234;2022-08-19T19:17:01;25.70;71.80
24087;DHT22;22893;50.572;7.234;2022-08-19T19:19:30;25.70;71.90
24087;DHT22;22893;50.572;7.234;2022-08-19T19:22:00;25.70;71.90
24087;DHT22;22893;50.572;7.234;2022-08-19T19:24:30;25.70;72.00
24087;DHT22;22893;50.572;7.234;2022-08-19T19:27:17;25.70;72.00
24087;DHT22;22893;50.572;7.234;2022-08-19T19:29:47;25.60;71.80
24087;DHT22;22893;50.572;7.234;2022-08-19T19:32:25;25.70;72.10
24087;DHT22;22893;50.572;7.234;2022-08-19T19:34:49;25.70;71.90
24087;DHT22;22893;50.572;7.234;2022-08-19T19:37:17;25.70;72.10
24087;DHT22;22893;50.572;7.234;2022-08-19T19:39:44;25.70;72.20
24087;DHT22;22893;50.572;7.234;2022-08-19T19:42:18;25.70;73.40
24087;DHT22;22893;50.572;7.234;2022-08-19T19:44:44;25.70;72.80
24087;DHT22;22893;50.572;7.234;2022-08-19T19:47:14;25.70;72.60
24087;DHT22;22893;50.572;7.234;2022-08-19T19:49:43;25.70;72.60
24087;DHT22;22893;50.572;7.234;2022-08-19T19:52:11;25.70;72.50
24087;DHT22;22893;50.572;7.234;2022-08-19T19:54:39;25.60;72.50
24087;DHT22;22893;50.572;7.234;2022-08-19T19:57:07;25.70;72.50
24087;DHT22;22893;50.572;7.234;2022-08-19T19:59:35;25.70;72.80
24087;DHT22;22893;50.572;7.234;2022-08-19T20:02:02;25.70;72.90
24087;DHT22;22893;50.572;7.234;2022-08-19T20:04:31;25.70;72.80
24087;DHT22;22893;50.572;7.234;2022-08-19T20:06:58;25.70;72.80
24087;DHT22;22893;50.572;7.234;2022-08-19T20:09:26;25.70;72.80
24087;DHT22;22893;50.572;7.234;2022-08-19T20:11:55;25.60;72.70
24087;DHT22;22893;50.572;7.234;2022-08-19T20:14:26;25.70;73.80
24087;DHT22;22893;50.572;7.234;2022-08-19T20:16:56;25.70;72.90
24087;DHT22;22893;50.572;7.234;2022-08-19T20:19:27;25.70;73.00
24087;DHT22;22893;50.572;7.234;2022-08-19T20:21:56;25.70;73.00
24087;DHT22;22893;50.572;7.234;2022-08-19T20:24:27;25.70;73.10
24087;DHT22;22893;50.572;7.234;2022-08-19T20:26:58;25.70;73.10
24087;DHT22;22893;50.572;7.234;2022-08-19T20:29:26;25.70;73.10
24087;DHT22;22893;50.572;7.234;2022-08-19T20:31:54;25.70;74.50
24087;DHT22;22893;50.572;7.234;2022-08-19T20:34:28;25.70;75.00
24087;DHT22;22893;50.572;7.234;2022-08-19T20:36:55;25.60;74.00
24087;DHT22;22893;50.572;7.234;2022-08-19T20:39:23;25.60;73.90
24087;DHT22;22893;50.572;7.234;2022-08-19T20:41:50;25.60;73.70
24087;DHT22;22893;50.572;7.234;2022-08-19T20:44:18;25.60;73.60
24087;DHT22;22893;50.572;7.234;2022-08-19T20:46:46;25.60;75.00
24087;DHT22;22893;50.572;7.234;2022-08-19T20:49:14;25.60;74.20
24087;DHT22;22893;50.572;7.234;2022-08-19T20:51:42;25.70;74.10
24087;DHT22;22893;50.572;7.234;2022-08-19T20:54:11;25.60;74.10
24087;DHT22;22893;50.572;7.234;2022-08-19T20:56:39;25.60;74.10
24087;DHT22;22893;50.572;7.234;2022-08-19T20:59:07;25.60;73.90
24087;DHT22;22893;50.572;7.234;2022-08-19T21:01:36;25.60;73.70
24087;DHT22;22893;50.572;7.234;2022-08-19T21:04:03;25.60;73.90